KOVE/OVE METAR and TAF weather

Enter ICAO airport designator
Station Type Date Time Source
KOVE METAR 2021/05/14 13:53 UTC NOAA

KOVE 141353Z AUTO 20003KT 10SM CLR 16/09 A2992 RMK AO2 SLP132 T01610094


Station Type Date Time Source
KOVE Decoded METAR 2021/05/14 13:53 UTC NOAA

OROVILLE MUNICIPAL AIRPORT, CA, United States (KOVE) 39-30N 121-37W 58M
May 14, 2021 - 09:53 AM EDT / 2021.05.14 1353 UTC
Wind: from the SSW (200 degrees) at 3 MPH (3 KT):0
Visibility: 10 mile(s):0
Sky conditions: clear
Temperature: 61.0 F (16.1 C)
Dew Point: 48.9 F (9.4 C)
Relative Humidity: 64%
Pressure (altimeter): 29.92 in. Hg (1013 hPa)
ob: KOVE 141353Z AUTO 20003KT 10SM CLR 16/09 A2992 RMK AO2 SLP132 T01610094
cycle: 14

Station Type Date Time Source
KOVE TAF UTC NOAA

Error!

Example: see airport list